Time;durP1;ratioP1;P1;durP2;ratioP2;P2;SDS_P1;SDS_P2;PMS_P1;PMS_P2;Temp;Humidity;BMP_temperature;BMP_pressure;BME280_temperature;BME280_humidity;BME280_pressure;Samples;Min_cycle;Max_cycle;Signal;HPM_P1;HPM_P2
2022/09/30 00:01:31;;;;;;;12.57;8.00;;;9.40;77.20;;;;;;5020871;28;20448;-75
2022/09/30 00:03:59;;;;;;;14.60;8.70;;;9.40;77.20;;;;;;5018948;28;20742;-77
2022/09/30 00:06:30;;;;;;;14.20;7.97;;;9.40;77.20;;;;;;5029700;28;20378;-75
2022/09/30 00:08:58;;;;;;;11.60;7.77;;;9.40;77.20;;;;;;5025877;28;20228;-75
2022/09/30 00:11:31;;;;;;;14.60;8.37;;;9.40;77.20;;;;;;5026455;28;21104;-77
2022/09/30 00:14:00;;;;;;;13.33;7.30;;;9.40;77.20;;;;;;5023351;28;20460;-76
2022/09/30 00:16:31;;;;;;;11.70;7.23;;;9.40;77.20;;;;;;5027540;28;20493;-77
2022/09/30 00:19:00;;;;;;;12.10;8.23;;;9.40;77.20;;;;;;5025826;28;20551;-76
2022/09/30 00:21:29;;;;;;;14.23;7.97;;;9.40;77.30;;;;;;5025125;28;20838;-77
2022/09/30 00:23:58;;;;;;;11.73;6.83;;;9.40;77.50;;;;;;5023149;28;20967;-76
2022/09/30 00:26:26;;;;;;;22.53;7.37;;;9.40;77.50;;;;;;5024125;28;20531;-76
2022/09/30 00:28:56;;;;;;;24.80;6.57;;;9.40;77.50;;;;;;5023013;28;20466;-75
2022/09/30 00:31:26;;;;;;;11.53;6.30;;;9.40;77.50;;;;;;5028288;28;20518;-75
2022/09/30 00:34:06;;;;;;;14.95;5.97;;;9.40;77.60;;;;;;5021781;28;20479;-75
2022/09/30 00:36:39;;;;;;;11.40;5.87;;;9.30;77.60;;;;;;5023021;28;20302;-75
2022/09/30 00:39:09;;;;;;;8.60;5.75;;;9.30;77.70;;;;;;5026501;28;20464;-76
2022/09/30 00:41:37;;;;;;;8.60;5.50;;;9.30;77.80;;;;;;5021854;28;20250;-76
2022/09/30 00:44:43;;;;;;;9.33;5.93;;;9.30;77.90;;;;;;5025203;28;20451;-76
2022/09/30 00:47:30;;;;;;;16.40;6.60;;;9.30;78.00;;;;;;5024064;28;20484;-76
2022/09/30 00:50:01;;;;;;;27.60;5.93;;;9.30;77.90;;;;;;5024073;28;20460;-76
2022/09/30 00:52:32;;;;;;;13.10;6.17;;;9.30;77.80;;;;;;5021938;28;20498;-75
2022/09/30 00:55:03;;;;;;;24.70;6.13;;;9.20;77.90;;;;;;5013453;28;21089;-76
2022/09/30 00:57:31;;;;;;;12.85;5.95;;;9.20;77.90;;;;;;5021853;28;20488;-76
2022/09/30 01:00:01;;;;;;;12.60;6.60;;;9.10;78.00;;;;;;5023595;28;20774;-77
2022/09/30 01:02:29;;;;;;;10.15;6.38;;;9.10;78.10;;;;;;5023386;28;20919;-76
2022/09/30 01:04:57;;;;;;;8.73;5.67;;;9.10;78.20;;;;;;5023774;28;20326;-76
2022/09/30 01:07:25;;;;;;;10.93;7.30;;;9.10;78.40;;;;;;5022302;28;20557;-76
2022/09/30 01:09:56;;;;;;;9.95;5.75;;;9.20;78.50;;;;;;5023284;28;20208;-77
2022/09/30 01:12:25;;;;;;;10.52;5.55;;;9.20;78.40;;;;;;5021990;28;20216;-76
2022/09/30 01:14:56;;;;;;;20.20;6.00;;;9.20;78.40;;;;;;5025417;28;20745;-77
2022/09/30 01:17:35;;;;;;;15.45;5.95;;;9.20;78.40;;;;;;5024424;28;20487;-77
2022/09/30 01:20:41;;;;;;;8.87;5.23;;;9.10;78.40;;;;;;5024632;28;20259;-76
2022/09/30 01:23:29;;;;;;;8.23;5.30;;;9.10;78.50;;;;;;5020820;28;20937;-77
2022/09/30 01:26:19;;;;;;;20.15;6.03;;;9.10;78.60;;;;;;5024576;28;20475;-77
2022/09/30 01:29:10;;;;;;;15.43;5.15;;;9.10;78.60;;;;;;4993753;28;20307;-76
2022/09/30 01:31:49;;;;;;;8.60;5.22;;;9.10;78.50;;;;;;5022684;28;20217;-77
2022/09/30 01:34:29;;;;;;;8.95;4.70;;;9.00;78.60;;;;;;5023001;28;20206;-76
2022/09/30 01:37:07;;;;;;;10.23;4.47;;;9.00;78.50;;;;;;5023989;28;20768;-77
2022/09/30 01:39:47;;;;;;;10.53;4.87;;;9.00;78.60;;;;;;5022752;28;20468;-77
2022/09/30 01:42:23;;;;;;;7.53;4.70;;;9.00;78.60;;;;;;5023655;28;20487;-77
2022/09/30 01:45:02;;;;;;;7.68;5.00;;;9.00;78.70;;;;;;5023005;28;20291;-76
2022/09/30 01:47:36;;;;;;;6.72;4.15;;;8.90;78.70;;;;;;5022182;28;20225;-76
2022/09/30 01:50:09;;;;;;;7.70;4.65;;;9.00;78.70;;;;;;5022046;28;20282;-75
2022/09/30 01:52:45;;;;;;;7.00;4.50;;;8.90;78.80;;;;;;5022299;28;20226;-77
2022/09/30 01:55:18;;;;;;;8.23;4.97;;;8.90;78.90;;;;;;5024844;28;20757;-76
2022/09/30 01:57:52;;;;;;;10.43;4.97;;;8.90;78.90;;;;;;5022834;28;20247;-75
2022/09/30 02:00:21;;;;;;;8.87;4.83;;;9.00;78.80;;;;;;5025150;28;20487;-77
2022/09/30 02:02:55;;;;;;;8.73;4.97;;;8.90;78.60;;;;;;5022307;28;21311;-76
2022/09/30 02:05:29;;;;;;;11.30;4.40;;;8.80;78.50;;;;;;5022872;28;20463;-76
2022/09/30 02:08:00;;;;;;;7.13;4.63;;;8.80;78.60;;;;;;5024013;28;20456;-75
2022/09/30 02:10:34;;;;;;;9.30;5.05;;;8.70;78.60;;;;;;5026850;28;20213;-77
2022/09/30 02:13:09;;;;;;;8.57;4.68;;;8.70;78.70;;;;;;5024057;28;20302;-74
2022/09/30 02:15:43;;;;;;;6.43;4.23;;;8.70;78.70;;;;;;5023001;28;20232;-74
2022/09/30 02:18:18;;;;;;;6.20;4.10;;;8.70;78.90;;;;;;5029372;28;20463;-75
2022/09/30 02:20:49;;;;;;;7.30;3.65;;;8.70;79.00;;;;;;5016792;28;20496;-77
2022/09/30 02:23:24;;;;;;;6.45;3.90;;;8.70;78.90;;;;;;5026789;28;20197;-77
2022/09/30 02:26:05;;;;;;;7.53;4.37;;;8.70;78.90;;;;;;5023857;28;20252;-75
2022/09/30 02:28:37;;;;;;;12.77;4.80;;;8.70;78.90;;;;;;5023077;28;20453;-76
2022/09/30 02:31:08;;;;;;;7.50;3.80;;;8.70;78.90;;;;;;5022067;28;20464;-76
2022/09/30 02:33:41;;;;;;;6.88;4.15;;;8.60;78.60;;;;;;5021340;28;20215;-75
2022/09/30 02:36:20;;;;;;;6.90;4.40;;;8.60;78.70;;;;;;5022993;28;20226;-76
2022/09/30 02:38:56;;;;;;;6.60;3.90;;;8.60;78.90;;;;;;5023162;28;20459;-76
2022/09/30 02:41:27;;;;;;;7.00;4.60;;;8.60;79.00;;;;;;5021574;28;20224;-76
2022/09/30 02:43:55;;;;;;;6.90;4.13;;;8.60;79.10;;;;;;5021028;28;20240;-76
2022/09/30 02:46:31;;;;;;;6.63;4.07;;;8.70;79.00;;;;;;5019546;28;20479;-75
2022/09/30 02:49:06;;;;;;;7.65;4.70;;;8.60;78.90;;;;;;5024125;28;20228;-75
2022/09/30 02:51:42;;;;;;;6.80;4.50;;;8.60;79.00;;;;;;5018985;28;20216;-74
2022/09/30 02:54:21;;;;;;;8.25;4.43;;;8.60;79.10;;;;;;5019205;28;20471;-77
2022/09/30 02:56:57;;;;;;;8.50;5.90;;;8.70;79.20;;;;;;5024243;28;20308;-76
2022/09/30 02:59:26;;;;;;;8.98;5.07;;;8.70;79.20;;;;;;5021359;28;20250;-76
2022/09/30 03:01:55;;;;;;;8.40;4.37;;;8.70;79.20;;;;;;5028799;28;20209;-76
2022/09/30 03:04:27;;;;;;;9.25;5.30;;;8.80;79.20;;;;;;5026074;28;20460;-76
2022/09/30 03:06:55;;;;;;;9.25;5.40;;;8.80;79.10;;;;;;5027296;28;20254;-76
2022/09/30 03:09:25;;;;;;;12.65;5.93;;;8.80;79.10;;;;;;5024059;28;20232;-77
2022/09/30 03:12:01;;;;;;;9.85;6.05;;;8.80;79.10;;;;;;5015733;28;20279;-75
2022/09/30 03:14:45;;;;;;;9.70;5.97;;;8.90;79.10;;;;;;5029456;28;20205;-75
2022/09/30 03:17:31;;;;;;;8.93;5.97;;;8.90;79.20;;;;;;5025534;28;20275;-75
2022/09/30 03:20:19;;;;;;;10.30;5.40;;;8.90;79.20;;;;;;5027485;28;20471;-75
2022/09/30 03:23:19;;;;;;;10.40;4.93;;;8.90;79.20;;;;;;5024656;28;20812;-76
2022/09/30 03:25:53;;;;;;;11.90;5.40;;;8.90;79.20;;;;;;5027450;28;20225;-77
2022/09/30 03:28:28;;;;;;;8.77;5.85;;;8.90;79.10;;;;;;5026575;28;20497;-76
2022/09/30 03:31:05;;;;;;;19.25;5.72;;;8.90;79.20;;;;;;5023196;28;20838;-76
2022/09/30 03:33:42;;;;;;;12.87;6.90;;;8.80;79.10;;;;;;5029300;28;20212;-77
2022/09/30 03:36:20;;;;;;;10.43;5.60;;;8.80;79.10;;;;;;5024235;28;20909;-76
2022/09/30 03:38:56;;;;;;;11.15;6.38;;;8.80;79.20;;;;;;5057432;28;20495;-76
2022/09/30 03:41:32;;;;;;;8.00;5.57;;;8.80;79.30;;;;;;5024988;28;20235;-76
2022/09/30 03:44:03;;;;;;;8.43;5.13;;;8.80;79.40;;;;;;5020249;28;20228;-75
2022/09/30 03:46:35;;;;;;;8.70;5.50;;;8.80;79.30;;;;;;5026430;28;20260;-76
2022/09/30 03:49:08;;;;;;;10.90;6.22;;;8.80;79.40;;;;;;5025148;28;20201;-76
2022/09/30 03:51:39;;;;;;;10.07;6.50;;;8.80;79.50;;;;;;5023607;28;20209;-76
2022/09/30 03:54:09;;;;;;;15.50;6.15;;;8.80;79.50;;;;;;5025258;28;20258;-76
2022/09/30 03:56:42;;;;;;;13.85;6.68;;;8.90;79.40;;;;;;5024482;28;21191;-77
2022/09/30 03:59:12;;;;;;;7.93;5.25;;;8.80;79.40;;;;;;5022810;28;20291;-77
2022/09/30 04:01:40;;;;;;;9.73;6.22;;;8.80;79.40;;;;;;5023827;28;20564;-76
2022/09/30 04:04:09;;;;;;;12.10;5.75;;;8.80;79.50;;;;;;5025315;28;20207;-75
2022/09/30 04:06:38;;;;;;;10.90;5.68;;;8.90;79.60;;;;;;5023884;28;20233;-76
2022/09/30 04:09:06;;;;;;;12.02;5.50;;;8.90;79.50;;;;;;5027970;28;20299;-76
2022/09/30 04:11:34;;;;;;;9.63;5.60;;;8.80;79.50;;;;;;5026036;28;20201;-76
2022/09/30 04:14:02;;;;;;;8.93;5.13;;;8.80;79.60;;;;;;5024225;28;20703;-76
2022/09/30 04:16:30;;;;;;;10.68;5.35;;;8.80;79.60;;;;;;5024642;28;20487;-76
2022/09/30 04:18:59;;;;;;;30.00;6.30;;;8.80;79.60;;;;;;5027824;28;20202;-77
2022/09/30 04:21:27;;;;;;;16.02;6.05;;;8.90;79.60;;;;;;5023401;28;20525;-77
2022/09/30 04:23:57;;;;;;;10.85;5.13;;;8.80;79.50;;;;;;5029953;28;20202;-76
2022/09/30 04:26:25;;;;;;;15.60;6.03;;;8.80;79.50;;;;;;5023837;28;20229;-76
2022/09/30 04:28:53;;;;;;;21.80;5.35;;;8.80;79.70;;;;;;5024329;28;20686;-76
2022/09/30 04:31:21;;;;;;;9.82;5.30;;;8.80;79.80;;;;;;5024148;28;20313;-77
2022/09/30 04:33:50;;;;;;;14.00;5.37;;;8.70;79.80;;;;;;5024940;28;20316;-76
2022/09/30 04:36:18;;;;;;;8.48;5.00;;;8.70;79.90;;;;;;5026390;28;20594;-76
2022/09/30 04:38:46;;;;;;;8.50;4.82;;;8.70;79.90;;;;;;5025411;28;20316;-76
2022/09/30 04:41:16;;;;;;;7.80;4.70;;;8.80;80.00;;;;;;5018015;28;20683;-77
2022/09/30 04:43:45;;;;;;;10.50;4.93;;;8.80;80.10;;;;;;5025284;28;21043;-75
2022/09/30 04:46:14;;;;;;;14.43;5.75;;;8.80;80.00;;;;;;5029154;28;20480;-77
2022/09/30 04:48:44;;;;;;;8.43;4.88;;;8.80;79.90;;;;;;5040840;28;20213;-76
2022/09/30 04:51:12;;;;;;;9.85;4.78;;;8.80;79.90;;;;;;5024718;28;20209;-77
2022/09/30 04:53:41;;;;;;;8.18;4.57;;;8.80;79.90;;;;;;5026629;28;20221;-76
2022/09/30 04:56:10;;;;;;;21.38;5.32;;;8.80;79.90;;;;;;5030607;28;20225;-77
2022/09/30 04:58:39;;;;;;;10.85;4.82;;;8.80;80.00;;;;;;5027738;28;20202;-76
2022/09/30 05:01:09;;;;;;;6.95;3.92;;;8.80;79.80;;;;;;5027118;28;20225;-77
2022/09/30 05:03:37;;;;;;;8.20;4.75;;;8.80;80.00;;;;;;5028669;28;20233;-76
2022/09/30 05:06:06;;;;;;;13.18;4.70;;;8.80;80.10;;;;;;5032073;28;20229;-75
2022/09/30 05:08:34;;;;;;;31.65;5.43;;;8.80;80.10;;;;;;5034209;28;20209;-75
2022/09/30 05:11:08;;;;;;;12.05;4.82;;;8.70;79.90;;;;;;5032225;28;20222;-77
2022/09/30 05:13:40;;;;;;;7.38;4.32;;;8.70;79.90;;;;;;5034542;28;20228;-76
2022/09/30 05:16:09;;;;;;;8.33;3.93;;;8.70;80.10;;;;;;5036212;28;20217;-76
2022/09/30 05:18:38;;;;;;;12.40;3.60;;;8.70;80.20;;;;;;5034429;28;20464;-78
2022/09/30 05:21:06;;;;;;;13.82;4.40;;;8.70;80.10;;;;;;5031660;28;20197;-77
2022/09/30 05:23:34;;;;;;;8.63;4.60;;;8.70;79.90;;;;;;5026529;28;20809;-78
2022/09/30 05:26:02;;;;;;;8.90;4.55;;;8.60;80.00;;;;;;5028968;28;20375;-77
2022/09/30 05:28:33;;;;;;;19.75;5.55;;;8.60;80.20;;;;;;5017239;28;20230;-77
2022/09/30 05:31:05;;;;;;;10.43;4.88;;;8.60;80.10;;;;;;5027865;28;20206;-76
2022/09/30 05:33:34;;;;;;;12.85;5.57;;;8.60;80.10;;;;;;5024504;28;20228;-77
2022/09/30 05:36:04;;;;;;;11.35;5.72;;;8.60;80.20;;;;;;5024520;28;20584;-76
2022/09/30 05:38:32;;;;;;;9.25;4.20;;;8.60;80.20;;;;;;5024467;28;20742;-76
2022/09/30 05:41:07;;;;;;;21.47;5.17;;;8.60;80.40;;;;;;5025523;28;20263;-76
2022/09/30 05:43:37;;;;;;;19.45;5.65;;;8.60;80.40;;;;;;5025422;28;21225;-77
2022/09/30 05:46:07;;;;;;;12.32;4.80;;;8.70;80.20;;;;;;5025955;28;20251;-77
2022/09/30 05:48:35;;;;;;;10.07;4.85;;;8.60;80.10;;;;;;5026369;28;20198;-77
2022/09/30 05:51:03;;;;;;;12.38;3.97;;;8.60;80.10;;;;;;5033359;28;20609;-76
2022/09/30 05:53:32;;;;;;;8.40;5.05;;;8.60;80.20;;;;;;5025276;28;20303;-77
2022/09/30 05:56:00;;;;;;;8.02;4.53;;;8.60;80.20;;;;;;5029498;28;20286;-77
2022/09/30 05:58:28;;;;;;;12.18;5.32;;;8.60;80.20;;;;;;5028476;28;20243;-77
2022/09/30 06:00:56;;;;;;;13.43;5.85;;;8.60;80.20;;;;;;5026009;28;20217;-77
2022/09/30 06:03:31;;;;;;;11.60;6.50;;;8.60;80.20;;;;;;5024445;28;20204;-77
2022/09/30 06:05:59;;;;;;;15.65;7.38;;;8.60;80.20;;;;;;5024665;28;20221;-75
2022/09/30 06:08:28;;;;;;;9.93;5.97;;;8.60;80.30;;;;;;5024480;28;20193;-75
2022/09/30 06:10:58;;;;;;;8.70;5.53;;;8.60;80.30;;;;;;5028217;28;20198;-75
2022/09/30 06:13:26;;;;;;;12.00;6.40;;;8.60;80.40;;;;;;5025147;28;20805;-75
2022/09/30 06:15:58;;;;;;;17.60;5.90;;;8.70;80.30;;;;;;5027352;28;20287;-75
2022/09/30 06:18:27;;;;;;;8.88;5.20;;;8.70;80.30;;;;;;5027800;28;20263;-75
2022/09/30 06:20:58;;;;;;;10.90;5.53;;;8.70;80.30;;;;;;5028189;28;20210;-76
2022/09/30 06:23:26;;;;;;;10.95;7.03;;;8.60;80.10;;;;;;5031149;28;20598;-77
2022/09/30 06:25:55;;;;;;;10.85;5.90;;;8.60;80.10;;;;;;5031302;28;20244;-77
2022/09/30 06:28:23;;;;;;;12.07;5.90;;;8.60;80.30;;;;;;5030015;28;20205;-75
2022/09/30 06:30:51;;;;;;;10.93;6.53;;;8.60;80.20;;;;;;5026255;28;20209;-76
2022/09/30 06:33:20;;;;;;;11.38;6.18;;;8.60;80.20;;;;;;5024748;28;20292;-75
2022/09/30 06:35:50;;;;;;;9.60;6.18;;;8.60;80.20;;;;;;5026839;28;20229;-75
2022/09/30 06:38:20;;;;;;;10.07;6.45;;;8.60;80.30;;;;;;5025273;28;20210;-77
2022/09/30 06:40:49;;;;;;;13.13;6.65;;;8.70;80.40;;;;;;5024571;28;20245;-76
2022/09/30 06:43:17;;;;;;;9.00;5.68;;;8.70;80.50;;;;;;5027959;28;20198;-77
2022/09/30 06:45:46;;;;;;;14.30;6.43;;;8.70;80.30;;;;;;5020469;28;20796;-77
2022/09/30 06:48:15;;;;;;;9.35;5.95;;;8.70;80.30;;;;;;5034017;28;20446;-77
2022/09/30 06:50:57;;;;;;;9.10;5.50;;;8.70;80.30;;;;;;5026627;28;20196;-76
2022/09/30 06:53:30;;;;;;;13.68;5.40;;;8.80;80.40;;;;;;5027237;28;21130;-76
2022/09/30 06:55:58;;;;;;;9.82;5.43;;;8.80;80.50;;;;;;5027183;28;20229;-77
2022/09/30 06:58:26;;;;;;;11.77;4.90;;;8.80;80.40;;;;;;5029984;28;20205;-77
2022/09/30 07:00:59;;;;;;;11.05;6.32;;;8.80;80.40;;;;;;5027990;28;20274;-77
2022/09/30 07:03:30;;;;;;;18.27;5.50;;;8.80;80.40;;;;;;5025516;28;20212;-76
2022/09/30 07:06:00;;;;;;;7.80;5.23;;;8.80;80.50;;;;;;5035672;28;20248;-77
2022/09/30 07:08:31;;;;;;;17.87;6.20;;;8.80;80.50;;;;;;5027138;28;20509;-77
2022/09/30 07:10:59;;;;;;;9.73;5.30;;;8.80;80.50;;;;;;5029387;28;20487;-76
2022/09/30 07:13:28;;;;;;;10.90;4.67;;;8.80;80.50;;;;;;5029248;28;20976;-77
2022/09/30 07:15:56;;;;;;;8.07;5.50;;;8.80;80.60;;;;;;5025878;28;20479;-76
2022/09/30 07:18:27;;;;;;;24.02;5.40;;;8.90;80.70;;;;;;5026598;28;20448;-76
2022/09/30 07:20:56;;;;;;;15.20;5.50;;;8.90;80.60;;;;;;5024557;28;20194;-75
2022/09/30 07:23:25;;;;;;;13.37;5.73;;;8.90;80.70;;;;;;5018657;28;21005;-77
2022/09/30 07:25:57;;;;;;;10.48;5.85;;;8.90;80.70;;;;;;5027785;28;20494;-77
2022/09/30 07:28:30;;;;;;;11.07;5.70;;;9.00;80.70;;;;;;5023847;28;20202;-76
2022/09/30 07:30:59;;;;;;;15.33;6.43;;;9.00;80.80;;;;;;5019874;28;21039;-77
2022/09/30 07:33:50;;;;;;;15.50;6.70;;;9.00;80.80;;;;;;5027978;28;20918;-77
2022/09/30 07:36:21;;;;;;;10.20;6.20;;;9.00;80.60;;;;;;5026871;28;20478;-76
2022/09/30 07:38:50;;;;;;;8.80;5.53;;;9.00;80.70;;;;;;5025742;28;20557;-76
2022/09/30 07:41:25;;;;;;;19.27;7.60;;;8.90;80.80;;;;;;5026527;28;20456;-78
2022/09/30 07:43:57;;;;;;;14.48;6.57;;;9.00;80.80;;;;;;5026653;28;20454;-76
2022/09/30 07:46:28;;;;;;;13.33;7.43;;;9.00;80.90;;;;;;5017605;28;20229;-77
2022/09/30 07:49:00;;;;;;;14.98;7.43;;;9.00;81.10;;;;;;5025734;28;20448;-76
2022/09/30 07:51:30;;;;;;;20.37;8.93;;;9.00;81.00;;;;;;5031095;28;20197;-75
2022/09/30 07:54:00;;;;;;;10.95;6.75;;;9.10;81.00;;;;;;5024418;28;20518;-77
2022/09/30 07:56:29;;;;;;;11.70;7.67;;;9.10;81.00;;;;;;5025878;28;20225;-77
2022/09/30 07:59:18;;;;;;;15.13;8.13;;;9.20;81.10;;;;;;5026785;28;20479;-77
2022/09/30 08:01:46;;;;;;;28.25;9.23;;;9.20;81.00;;;;;;5024033;28;20513;-75
2022/09/30 08:04:17;;;;;;;13.17;7.60;;;9.20;81.10;;;;;;5029221;28;20237;-76
2022/09/30 08:06:47;;;;;;;29.80;8.77;;;9.20;81.20;;;;;;5028419;28;20530;-76
2022/09/30 08:09:16;;;;;;;15.95;8.10;;;9.30;81.20;;;;;;5035343;28;20535;-76
2022/09/30 08:11:46;;;;;;;20.83;8.50;;;9.30;81.20;;;;;;5026011;28;20255;-77
2022/09/30 08:14:15;;;;;;;11.93;7.93;;;9.30;81.00;;;;;;5025767;28;20502;-76
2022/09/30 08:16:44;;;;;;;15.17;7.83;;;9.30;81.00;;;;;;5026048;28;20487;-76
2022/09/30 08:19:15;;;;;;;16.70;8.03;;;9.30;81.20;;;;;;5029650;28;20452;-77
2022/09/30 08:21:43;;;;;;;12.20;7.77;;;9.40;81.20;;;;;;5025457;28;20490;-76
2022/09/30 08:24:12;;;;;;;24.00;8.63;;;9.40;81.30;;;;;;5028129;28;20460;-77
2022/09/30 08:26:41;;;;;;;15.27;7.50;;;9.50;81.40;;;;;;5023220;28;20788;-76
2022/09/30 08:29:13;;;;;;;29.65;8.15;;;9.50;81.30;;;;;;5029580;28;20936;-78
2022/09/30 08:31:48;;;;;;;18.73;8.47;;;9.50;81.30;;;;;;5021806;28;20284;-76
2022/09/30 08:34:17;;;;;;;12.07;7.93;;;9.60;81.20;;;;;;5025959;28;20459;-75
2022/09/30 08:36:45;;;;;;;15.43;8.60;;;9.60;81.30;;;;;;5027489;28;20496;-76
2022/09/30 08:39:14;;;;;;;11.70;7.50;;;9.60;81.40;;;;;;5025448;28;20888;-76
2022/09/30 08:42:13;;;;;;;17.00;9.77;;;9.60;81.50;;;;;;5026650;28;20468;-77
2022/09/30 08:45:11;;;;;;;12.10;7.63;;;9.60;81.50;;;;;;5025332;28;20464;-77
2022/09/30 08:47:46;;;;;;;14.63;7.43;;;9.70;81.60;;;;;;5028121;28;20455;-77
2022/09/30 08:50:22;;;;;;;12.57;8.03;;;9.70;81.70;;;;;;5030691;28;20543;-76
2022/09/30 08:52:53;;;;;;;15.07;9.30;;;9.80;81.70;;;;;;5023273;28;20454;-76
2022/09/30 08:55:23;;;;;;;14.37;9.07;;;9.80;81.80;;;;;;5024295;28;21306;-77
2022/09/30 08:57:53;;;;;;;17.97;11.03;;;9.90;81.90;;;;;;5023108;28;20463;-74
2022/09/30 09:00:23;;;;;;;17.53;9.90;;;10.00;81.90;;;;;;5025723;28;20456;-75
2022/09/30 09:02:54;;;;;;;15.50;10.00;;;10.00;81.90;;;;;;5023458;28;20506;-75
2022/09/30 09:05:35;;;;;;;14.63;9.27;;;10.10;81.90;;;;;;5028002;28;20441;-74
2022/09/30 09:08:09;;;;;;;15.63;9.43;;;10.10;81.90;;;;;;5025549;28;20509;-76
2022/09/30 09:10:43;;;;;;;16.80;9.87;;;10.20;82.00;;;;;;5027344;28;20440;-75
2022/09/30 09:13:28;;;;;;;15.50;9.80;;;10.20;81.90;;;;;;5023768;28;20455;-76
2022/09/30 09:16:06;;;;;;;17.43;10.60;;;10.20;82.00;;;;;;5023578;28;20552;-76
2022/09/30 09:18:44;;;;;;;19.97;11.67;;;10.30;82.10;;;;;;5024913;28;21016;-75
2022/09/30 09:21:22;;;;;;;15.37;10.00;;;10.30;82.10;;;;;;5026001;28;20562;-75
2022/09/30 09:23:53;;;;;;;15.83;8.80;;;10.40;82.10;;;;;;5023280;28;20460;-75
2022/09/30 09:26:22;;;;;;;16.67;10.63;;;10.40;82.10;;;;;;5027145;28;20993;-74
2022/09/30 09:29:03;;;;;;;17.27;11.70;;;10.50;82.20;;;;;;5024771;28;21008;-76
2022/09/30 09:31:32;;;;;;;14.67;10.20;;;10.50;82.10;;;;;;5023479;28;20522;-76
2022/09/30 09:34:09;;;;;;;14.80;10.20;;;10.60;82.20;;;;;;5022601;28;20642;-74
2022/09/30 09:36:52;;;;;;;17.53;11.60;;;10.60;82.20;;;;;;5025117;28;20982;-76
2022/09/30 09:39:35;;;;;;;16.63;10.60;;;10.70;82.20;;;;;;5023244;28;20451;-75
2022/09/30 09:42:11;;;;;;;17.63;11.80;;;10.70;82.20;;;;;;5022331;28;20889;-75
2022/09/30 09:44:48;;;;;;;19.77;13.07;;;10.80;82.20;;;;;;5025465;28;20505;-75
2022/09/30 09:47:18;;;;;;;19.33;14.20;;;10.80;82.20;;;;;;5024143;28;20515;-74
2022/09/30 09:49:50;;;;;;;20.70;13.07;;;10.80;82.00;;;;;;5015905;28;20510;-74
2022/09/30 09:52:51;;;;;;;17.80;12.70;;;10.80;82.10;;;;;;5027711;28;20462;-75
2022/09/30 09:55:22;;;;;;;21.00;13.13;;;10.80;82.20;;;;;;5037722;28;20536;-75
2022/09/30 09:58:06;;;;;;;20.80;14.27;;;10.80;82.30;;;;;;5025746;28;20521;-75
2022/09/30 10:03:23;;;;;;;18.80;12.37;;;10.80;82.50;;;;;;5024154;28;20490;-74
2022/09/30 10:06:04;;;;;;;21.40;13.93;;;10.80;82.60;;;;;;5025445;28;20502;-75
2022/09/30 10:08:33;;;;;;;19.77;13.90;;;10.90;82.70;;;;;;5027024;28;20963;-75
2022/09/30 10:11:03;;;;;;;20.47;13.37;;;10.90;82.70;;;;;;5027716;28;20460;-75
2022/09/30 10:13:40;;;;;;;19.87;13.80;;;11.00;82.90;;;;;;5028468;28;20940;-74
2022/09/30 10:16:27;;;;;;;21.93;13.33;;;11.00;82.90;;;;;;5019972;28;20471;-74
2022/09/30 10:18:57;;;;;;;23.67;14.40;;;11.10;83.00;;;;;;5027627;28;20466;-74
2022/09/30 10:21:27;;;;;;;20.60;12.93;;;11.20;83.00;;;;;;5032715;28;20455;-75
2022/09/30 10:23:56;;;;;;;21.27;13.50;;;11.20;83.10;;;;;;5028009;28;20486;-75
2022/09/30 10:26:26;;;;;;;21.33;14.00;;;11.30;83.10;;;;;;5029322;28;20464;-74
2022/09/30 10:29:02;;;;;;;22.20;12.80;;;11.30;83.10;;;;;;5029907;28;20454;-75
2022/09/30 10:31:34;;;;;;;21.37;13.73;;;11.40;83.20;;;;;;5030096;28;20498;-73
2022/09/30 10:34:15;;;;;;;19.20;12.80;;;11.50;83.30;;;;;;5028024;28;20451;-75
2022/09/30 10:36:44;;;;;;;21.73;14.03;;;11.60;83.30;;;;;;5027662;28;20980;-75
2022/09/30 10:39:22;;;;;;;19.70;14.20;;;11.60;83.30;;;;;;5030408;28;20448;-76
2022/09/30 10:42:01;;;;;;;19.40;12.13;;;11.70;83.20;;;;;;5025164;28;20473;-74
2022/09/30 10:44:30;;;;;;;16.20;10.70;;;11.80;83.30;;;;;;5024302;28;21057;-75
2022/09/30 10:47:02;;;;;;;17.30;10.70;;;11.90;83.30;;;;;;5027176;28;20502;-75
2022/09/30 10:49:36;;;;;;;15.10;9.80;;;11.90;83.30;;;;;;5025043;28;21004;-74
2022/09/30 10:52:05;;;;;;;17.03;10.53;;;12.00;83.20;;;;;;5025756;28;20451;-74
2022/09/30 10:54:48;;;;;;;15.43;9.87;;;12.10;83.20;;;;;;5028399;28;20452;-75
2022/09/30 10:57:20;;;;;;;15.03;9.63;;;12.10;83.20;;;;;;5025475;28;20560;-74
2022/09/30 10:59:50;;;;;;;13.87;9.80;;;12.20;83.20;;;;;;5027574;28;20519;-74
2022/09/30 11:02:26;;;;;;;14.23;10.23;;;12.20;83.20;;;;;;5021637;28;20467;-74
2022/09/30 11:05:04;;;;;;;16.40;9.40;;;12.30;83.20;;;;;;5022098;28;20856;-75
2022/09/30 11:07:39;;;;;;;15.50;9.27;;;12.40;83.10;;;;;;5021575;28;21074;-76
2022/09/30 11:10:18;;;;;;;13.57;8.97;;;12.50;83.00;;;;;;5023177;28;20770;-76
2022/09/30 11:12:51;;;;;;;14.70;10.10;;;12.50;82.90;;;;;;5025175;28;20463;-74
2022/09/30 11:15:25;;;;;;;13.23;9.10;;;12.50;82.80;;;;;;5038360;28;20463;-74
2022/09/30 11:17:59;;;;;;;14.20;9.43;;;12.60;82.80;;;;;;5032128;28;20535;-74
2022/09/30 11:20:32;;;;;;;14.73;9.07;;;12.60;82.80;;;;;;5031234;28;20505;-74
2022/09/30 11:23:05;;;;;;;12.13;7.43;;;12.70;82.70;;;;;;5034364;28;20452;-76
2022/09/30 11:25:42;;;;;;;12.43;7.27;;;12.70;82.60;;;;;;5024383;28;20460;-75
2022/09/30 11:28:35;;;;;;;12.03;7.30;;;12.80;82.70;;;;;;5032993;28;20484;-76
2022/09/30 11:31:14;;;;;;;12.17;6.07;;;12.90;82.60;;;;;;5032250;28;20517;-74
2022/09/30 11:33:54;;;;;;;9.17;5.03;;;13.00;82.50;;;;;;5027395;28;20729;-76
2022/09/30 11:36:30;;;;;;;9.30;4.43;;;13.00;82.20;;;;;;5022914;28;21417;-76
2022/09/30 11:39:36;;;;;;;6.17;3.57;;;13.10;81.80;;;;;;5028436;28;21030;-76
2022/09/30 11:42:12;;;;;;;9.53;4.80;;;13.20;81.70;;;;;;5025461;28;20513;-75
2022/09/30 11:44:44;;;;;;;8.80;4.90;;;13.20;81.50;;;;;;5027507;28;20448;-75
2022/09/30 11:47:26;;;;;;;10.07;4.83;;;13.20;81.30;;;;;;5022793;28;20529;-75
2022/09/30 11:50:23;;;;;;;10.63;5.30;;;13.30;81.00;;;;;;5030434;28;20440;-75
2022/09/30 11:53:03;;;;;;;10.27;5.53;;;13.40;80.60;;;;;;5024887;28;20543;-75
2022/09/30 11:55:43;;;;;;;10.50;5.60;;;13.40;80.50;;;;;;5025986;28;20450;-76
2022/09/30 11:58:13;;;;;;;9.53;5.80;;;13.40;80.30;;;;;;5028916;28;20988;-76
2022/09/30 12:01:14;;;;;;;9.87;5.43;;;13.50;80.20;;;;;;4989993;28;1104706;-76
2022/09/30 12:03:45;;;;;;;12.90;5.50;;;13.60;79.70;;;;;;5024624;28;20235;-76
2022/09/30 12:06:23;;;;;;;10.87;5.03;;;13.60;79.40;;;;;;5024596;28;20542;-77
2022/09/30 12:08:56;;;;;;;7.97;5.13;;;13.70;79.50;;;;;;5026733;28;20451;-75
2022/09/30 12:11:33;;;;;;;8.10;4.73;;;13.70;79.30;;;;;;5023661;28;20480;-77
2022/09/30 12:14:09;;;;;;;14.00;5.50;;;13.80;78.90;;;;;;5024708;28;20444;-76
2022/09/30 12:16:38;;;;;;;9.87;5.00;;;13.70;78.60;;;;;;5027427;28;20530;-76
2022/09/30 12:19:15;;;;;;;9.43;4.50;;;13.80;78.50;;;;;;5024078;28;20475;-76
2022/09/30 12:21:53;;;;;;;8.40;3.30;;;13.70;78.20;;;;;;5033049;28;20538;-75
2022/09/30 12:24:28;;;;;;;5.70;3.00;;;13.70;78.00;;;;;;5030055;28;20870;-74
2022/09/30 12:26:57;;;;;;;6.10;2.90;;;13.80;77.90;;;;;;5028497;28;21222;-76
2022/09/30 12:32:53;;;;;;;5.80;2.83;;;13.90;77.50;;;;;;5026352;28;20455;-76
2022/09/30 12:35:39;;;;;;;7.83;3.87;;;14.00;77.10;;;;;;5023828;28;20570;-76
2022/09/30 12:38:33;;;;;;;7.17;3.20;;;14.00;76.80;;;;;;5023890;28;20556;-77
2022/09/30 12:41:15;;;;;;;5.17;2.57;;;14.00;76.70;;;;;;5026636;28;20502;-75
2022/09/30 12:44:23;;;;;;;7.90;3.23;;;14.10;76.40;;;;;;5031483;28;20828;-74
2022/09/30 12:47:02;;;;;;;8.17;3.27;;;14.10;76.30;;;;;;5027137;28;20471;-75
2022/09/30 12:49:33;;;;;;;7.03;2.73;;;14.20;76.10;;;;;;5027614;28;20846;-75
2022/09/30 12:52:13;;;;;;;6.70;2.87;;;14.20;75.90;;;;;;5023567;28;20476;-75
2022/09/30 12:54:46;;;;;;;5.47;2.70;;;14.20;75.40;;;;;;5013961;28;20523;-76
2022/09/30 12:57:19;;;;;;;6.13;2.67;;;14.20;75.20;;;;;;5025128;28;20550;-74
2022/09/30 12:59:52;;;;;;;5.93;2.90;;;14.20;75.10;;;;;;5028975;28;20970;-74
2022/09/30 13:02:33;;;;;;;10.33;2.63;;;14.20;74.90;;;;;;5021825;28;20467;-74
2022/09/30 13:05:39;;;;;;;5.57;2.70;;;14.20;74.70;;;;;;5025418;28;20464;-76
2022/09/30 13:08:40;;;;;;;8.10;2.60;;;14.30;74.60;;;;;;5016993;28;21237;-76
2022/09/30 13:11:31;;;;;;;4.37;2.10;;;14.30;74.20;;;;;;5025185;28;20452;-76
2022/09/30 13:14:28;;;;;;;5.13;2.20;;;14.40;74.20;;;;;;5037715;28;20480;-74
2022/09/30 13:17:22;;;;;;;11.23;2.10;;;14.40;74.00;;;;;;5010730;28;20513;-76
2022/09/30 13:19:53;;;;;;;4.53;1.90;;;14.50;73.80;;;;;;5026636;28;20451;-76
2022/09/30 13:22:57;;;;;;;7.93;2.00;;;14.50;73.40;;;;;;5025999;28;20464;-75
2022/09/30 13:25:26;;;;;;;5.33;1.70;;;14.60;73.20;;;;;;5028833;28;20468;-75
2022/09/30 13:28:24;;;;;;;8.07;2.00;;;14.70;73.00;;;;;;5026000;28;20905;-75